createdAt,value
2023-01-10T00:02:15.500Z,53.08
2023-01-10T00:05:20.282Z,53.24
2023-01-10T00:08:23.707Z,52.99
2023-01-10T00:11:44.925Z,53.22
2023-01-10T00:14:48.249Z,53.24
2023-01-10T00:17:53.178Z,53.01
2023-01-10T00:20:56.501Z,53.55
2023-01-10T00:24:08.722Z,53.56
2023-01-10T00:27:17.821Z,53.25
2023-01-10T00:30:21.836Z,53.84
2023-01-10T00:33:26.479Z,53.96
2023-01-10T00:36:30.507Z,54.07
2023-01-10T00:39:33.841Z,54.19
2023-01-10T00:42:55.895Z,53.92
2023-01-10T00:45:59.219Z,53.97
2023-01-10T00:49:08.642Z,53.99
2023-01-10T00:52:11.980Z,54.20
2023-01-10T00:55:15.901Z,54.52
2023-01-10T00:58:19.349Z,53.84
2023-01-10T01:01:23.243Z,53.45
2023-01-10T01:04:28.014Z,54.06
2023-01-10T01:07:32.381Z,53.98
2023-01-10T01:10:36.002Z,53.87
2023-01-10T01:13:40.155Z,53.98
2023-01-10T01:16:43.430Z,53.87
2023-01-10T01:19:48.717Z,53.74
2023-01-10T01:22:51.917Z,53.78
2023-01-10T01:25:57.127Z,53.60
2023-01-10T01:29:00.409Z,53.64
2023-01-10T01:32:04.553Z,53.51
2023-01-10T01:35:15.701Z,53.44
2023-01-10T01:38:19.835Z,53.46
2023-01-10T01:41:40.558Z,53.37
2023-01-10T01:44:44.282Z,53.01
2023-01-10T01:47:54.639Z,53.40
2023-01-10T01:51:09.539Z,53.50
2023-01-10T01:54:14.649Z,53.74
2023-01-10T01:57:25.681Z,53.54
2023-01-10T02:00:29.056Z,52.87
2023-01-10T02:03:33.296Z,53.48
2023-01-10T02:06:38.049Z,52.81
2023-01-10T02:09:49.072Z,53.18
2023-01-10T02:12:56.338Z,53.12
2023-01-10T02:16:01.413Z,53.38
2023-01-10T02:19:12.954Z,53.00
2023-01-10T02:22:50.850Z,53.04
2023-01-10T02:26:40.702Z,52.96
2023-01-10T02:30:38.573Z,52.99
2023-01-10T02:33:54.397Z,53.03
2023-01-10T02:37:09.657Z,53.02
2023-01-10T02:40:24.251Z,53.00
2023-01-10T02:43:36.216Z,52.91
2023-01-10T02:46:41.638Z,52.87
2023-01-10T02:49:49.425Z,52.90
2023-01-10T02:52:53.505Z,52.23
2023-01-10T02:56:20.743Z,52.58
2023-01-10T03:00:03.939Z,52.79
2023-01-10T03:03:33.250Z,52.49
2023-01-10T03:06:53.671Z,52.60
2023-01-10T03:10:06.642Z,52.54
2023-01-10T03:13:17.450Z,52.39
2023-01-10T03:16:29.488Z,52.48
2023-01-10T03:19:42.069Z,52.32
2023-01-10T03:22:49.647Z,52.33
2023-01-10T03:25:57.591Z,51.88
2023-01-10T03:29:09.031Z,51.68
2023-01-10T03:32:17.026Z,52.23
2023-01-10T03:35:25.615Z,52.05
2023-01-10T03:38:42.808Z,52.38
2023-01-10T03:42:00.646Z,52.30
2023-01-10T03:45:13.508Z,51.93
2023-01-10T03:48:19.960Z,51.93
2023-01-10T03:51:23.804Z,51.67
2023-01-10T03:54:29.450Z,51.94
2023-01-10T03:57:32.910Z,51.95
2023-01-10T04:00:36.641Z,52.00
2023-01-10T04:03:39.923Z,52.17
2023-01-10T04:06:43.869Z,52.19
2023-01-10T04:09:48.550Z,51.74
2023-01-10T04:12:52.465Z,52.07
2023-01-10T04:15:55.826Z,51.79
2023-01-10T04:18:59.783Z,51.84
2023-01-10T04:22:03.298Z,51.61
2023-01-10T04:25:09.741Z,51.80
2023-01-10T04:28:13.002Z,51.10
2023-01-10T04:31:17.046Z,52.22
2023-01-10T04:34:21.707Z,51.65
2023-01-10T04:37:25.760Z,51.36
2023-01-10T04:40:30.447Z,51.54
2023-01-10T04:43:34.489Z,51.51
2023-01-10T04:46:37.792Z,52.10
2023-01-10T04:49:41.595Z,51.34
2023-01-10T04:52:44.916Z,51.25
2023-01-10T04:55:50.933Z,51.35
2023-01-10T04:58:54.396Z,51.13
2023-01-10T05:01:58.952Z,51.50
2023-01-10T05:05:02.280Z,51.29
2023-01-10T05:08:06.505Z,50.99
2023-01-10T05:11:11.595Z,50.97
2023-01-10T05:14:15.363Z,51.32
2023-01-10T05:17:18.694Z,51.02
2023-01-10T05:20:22.541Z,51.02
2023-01-10T05:23:25.809Z,51.16
2023-01-10T05:26:31.293Z,51.63
2023-01-10T05:29:35.520Z,51.17
2023-01-10T05:32:39.078Z,51.19
2023-01-10T05:35:42.390Z,50.83
2023-01-10T05:38:46.463Z,50.42
2023-01-10T05:41:51.276Z,50.52
2023-01-10T05:44:55.675Z,50.70
2023-01-10T05:47:58.939Z,50.70
2023-01-10T05:51:03.051Z,50.23
2023-01-10T05:54:06.833Z,50.64
2023-01-10T05:57:12.459Z,50.46
2023-01-10T06:00:17.785Z,50.80
2023-01-10T06:03:21.896Z,50.77
2023-01-10T06:06:25.187Z,50.42
2023-01-10T06:09:29.029Z,50.47
2023-01-10T06:12:33.611Z,50.56
2023-01-10T06:15:38.074Z,50.41
2023-01-10T06:18:41.449Z,50.54
2023-01-10T06:21:45.370Z,50.25
2023-01-10T06:24:48.566Z,50.21
2023-01-10T06:27:53.728Z,50.25
2023-01-10T06:30:56.942Z,50.92
2023-01-10T06:34:00.495Z,50.18
2023-01-10T06:37:03.817Z,49.85
2023-01-10T06:40:09.327Z,50.39
2023-01-10T06:43:13.945Z,49.97
2023-01-10T06:46:20.165Z,49.99
2023-01-10T06:49:23.560Z,50.03
2023-01-10T06:52:27.661Z,49.97
2023-01-10T06:55:32.064Z,49.21
2023-01-10T06:58:38.769Z,49.73
2023-01-10T07:01:42.074Z,50.03
2023-01-10T07:04:45.919Z,50.10
2023-01-10T07:07:49.183Z,50.04
2023-01-10T07:10:53.096Z,49.76
2023-01-10T07:13:57.621Z,49.86
2023-01-10T07:17:01.858Z,49.95
2023-01-10T07:20:06.037Z,49.96
2023-01-10T07:23:11.043Z,49.86
2023-01-10T07:26:17.690Z,49.44
2023-01-10T07:29:23.084Z,50.12
2023-01-10T07:32:26.338Z,49.36
2023-01-10T07:35:30.376Z,50.08
2023-01-10T07:38:33.652Z,49.60
2023-01-10T07:41:37.720Z,50.23
2023-01-10T07:44:42.304Z,50.75
2023-01-10T07:47:46.419Z,51.09
2023-01-10T07:50:49.608Z,50.95
2023-01-10T07:53:53.543Z,51.05
2023-01-10T07:56:56.912Z,51.21
2023-01-10T08:00:02.026Z,50.83
2023-01-10T08:03:08.418Z,51.22
2023-01-10T08:06:13.142Z,50.90
2023-01-10T08:09:17.102Z,51.30
2023-01-10T08:12:24.527Z,50.71
2023-01-10T08:15:29.179Z,51.02
2023-01-10T08:18:33.153Z,51.21
2023-01-10T08:21:36.583Z,50.78
2023-01-10T08:24:40.727Z,50.92
2023-01-10T08:27:43.954Z,50.89
2023-01-10T08:30:50.590Z,50.94
2023-01-10T08:33:53.934Z,50.79
2023-01-10T08:36:58.208Z,50.44
2023-01-10T08:40:01.375Z,50.75
2023-01-10T08:43:08.153Z,50.70
2023-01-10T08:46:12.823Z,50.38
2023-01-10T08:49:17.147Z,50.61
2023-01-10T08:52:20.882Z,50.44
2023-01-10T08:55:24.595Z,50.58
2023-01-10T08:58:27.847Z,50.58
2023-01-10T09:01:33.679Z,50.73
2023-01-10T09:04:36.944Z,49.93
2023-01-10T09:07:42.152Z,50.22
2023-01-10T09:10:45.388Z,50.16
2023-01-10T09:13:51.375Z,50.23
2023-01-10T09:16:56.022Z,50.23
2023-01-10T09:19:59.797Z,50.49
2023-01-10T09:23:08.375Z,49.69
2023-01-10T09:26:12.237Z,50.57
2023-01-10T09:29:15.476Z,49.83
2023-01-10T09:32:20.801Z,49.87
2023-01-10T09:35:26.650Z,49.52
2023-01-10T09:38:30.301Z,49.69
2023-01-10T09:42:01.364Z,49.30
2023-01-10T09:45:20.552Z,49.76
2023-01-10T09:48:38.255Z,50.29
2023-01-10T09:51:48.754Z,50.62
2023-01-10T09:54:57.215Z,50.65
2023-01-10T09:58:07.815Z,50.51
2023-01-10T10:01:18.897Z,50.65
2023-01-10T10:04:35.127Z,50.55
2023-01-10T10:07:38.610Z,50.69
2023-01-10T10:10:58.309Z,50.78
2023-01-10T10:14:12.313Z,50.89
2023-01-10T10:17:37.866Z,50.09
2023-01-10T10:20:58.822Z,50.13
2023-01-10T10:24:43.195Z,50.93
2023-01-10T10:28:10.510Z,50.94
2023-01-10T10:31:28.051Z,50.98
2023-01-10T10:34:38.736Z,50.61
2023-01-10T10:37:49.717Z,50.74
2023-01-10T10:40:56.752Z,50.82
2023-01-10T10:44:07.012Z,50.29
2023-01-10T10:47:17.957Z,49.95
2023-01-10T10:50:32.732Z,49.77
2023-01-10T10:53:37.816Z,49.88
2023-01-10T10:56:42.742Z,50.17
2023-01-10T10:59:49.765Z,50.14
2023-01-10T11:03:02.459Z,50.17
2023-01-10T11:06:09.963Z,49.88
2023-01-10T11:09:15.410Z,50.09
2023-01-10T11:12:22.162Z,49.45
2023-01-10T11:15:40.472Z,49.69
2023-01-10T11:18:43.669Z,50.08
2023-01-10T11:21:53.436Z,49.94
2023-01-10T11:25:02.081Z,49.80
2023-01-10T11:28:09.162Z,49.77
2023-01-10T11:31:13.829Z,49.56
2023-01-10T11:34:27.163Z,50.00
2023-01-10T11:37:33.408Z,49.83
2023-01-10T11:40:39.563Z,49.81
2023-01-10T11:43:43.332Z,50.00
2023-01-10T11:46:49.781Z,50.16
2023-01-10T11:49:53.362Z,50.13
2023-01-10T11:52:57.890Z,50.44
2023-01-10T11:56:04.260Z,49.99
2023-01-10T11:59:16.455Z,50.47
2023-01-10T12:02:28.057Z,50.50
2023-01-10T12:05:32.517Z,50.39
2023-01-10T12:08:38.589Z,50.37
2023-01-10T12:11:43.718Z,50.46
2023-01-10T12:14:48.778Z,50.37
2023-01-10T12:17:55.260Z,50.25
2023-01-10T12:21:00.539Z,50.45
2023-01-10T12:24:13.530Z,50.19
2023-01-10T12:27:21.755Z,50.58
2023-01-10T12:30:34.692Z,50.89
2023-01-10T12:33:46.619Z,50.57
2023-01-10T12:37:06.468Z,50.70
2023-01-10T12:40:24.204Z,50.32
2023-01-10T12:43:57.032Z,50.42
2023-01-10T12:47:13.410Z,50.43
2023-01-10T12:50:25.131Z,50.47
2023-01-10T12:53:34.945Z,50.61
2023-01-10T12:56:40.505Z,50.41
2023-01-10T12:59:46.432Z,50.41
2023-01-10T13:02:54.074Z,50.85
2023-01-10T13:06:00.051Z,50.39
2023-01-10T13:09:10.039Z,50.67
2023-01-10T13:12:22.017Z,50.72
2023-01-10T13:15:33.521Z,50.87
2023-01-10T13:18:36.901Z,50.62
2023-01-10T13:21:43.572Z,51.05
2023-01-10T13:24:58.211Z,50.87
2023-01-10T13:28:10.186Z,51.50
2023-01-10T13:31:28.226Z,51.18
2023-01-10T13:34:36.838Z,51.39
2023-01-10T13:37:44.125Z,51.14
2023-01-10T13:41:03.527Z,50.99
2023-01-10T13:44:12.633Z,51.55
2023-01-10T13:48:03.417Z,51.64
2023-01-10T13:51:24.622Z,51.54
2023-01-10T13:54:29.579Z,52.33
2023-01-10T13:57:56.953Z,51.63
2023-01-10T14:01:20.742Z,52.05
2023-01-10T14:04:30.284Z,51.50
2023-01-10T14:07:45.701Z,51.69
2023-01-10T14:11:07.327Z,51.75
2023-01-10T14:14:25.004Z,51.52
2023-01-10T14:17:31.215Z,51.80
2023-01-10T14:20:37.990Z,52.16
2023-01-10T14:23:49.248Z,51.47
2023-01-10T14:26:57.472Z,52.17
2023-01-10T14:30:04.047Z,51.53
2023-01-10T14:33:16.880Z,51.95
2023-01-10T14:36:26.709Z,51.77
2023-01-10T14:39:32.413Z,51.56
2023-01-10T14:42:37.298Z,51.58
2023-01-10T14:45:54.869Z,51.59
2023-01-10T14:49:00.836Z,52.10
2023-01-10T14:52:20.779Z,50.99
2023-01-10T14:55:24.376Z,51.45
2023-01-10T14:58:28.090Z,51.89
2023-01-10T15:01:32.097Z,51.53
2023-01-10T15:04:39.065Z,51.45
2023-01-10T15:07:43.695Z,51.57
2023-01-10T15:10:51.839Z,51.63
2023-01-10T15:14:03.367Z,51.80
2023-01-10T15:17:13.124Z,51.80
2023-01-10T15:20:18.929Z,51.76
2023-01-10T15:23:27.317Z,51.72
2023-01-10T15:26:33.458Z,51.73
2023-01-10T15:29:44.755Z,51.59
2023-01-10T15:32:52.705Z,51.48
2023-01-10T15:35:57.174Z,51.89
2023-01-10T15:39:01.888Z,51.44
2023-01-10T15:42:10.612Z,51.72
2023-01-10T15:45:30.905Z,51.54
2023-01-10T15:48:37.161Z,52.00
2023-01-10T15:51:41.474Z,51.57
2023-01-10T15:54:46.842Z,51.70
2023-01-10T15:57:53.150Z,51.26
2023-01-10T16:00:59.975Z,51.61
2023-01-10T16:04:06.499Z,51.61
2023-01-10T16:07:19.932Z,51.51
2023-01-10T16:10:28.105Z,51.78
2023-01-10T16:13:33.167Z,51.74
2023-01-10T16:16:36.690Z,51.44
2023-01-10T16:19:41.267Z,51.45
2023-01-10T16:22:46.847Z,51.65
2023-01-10T16:25:56.083Z,51.17
2023-01-10T16:28:59.264Z,51.45
2023-01-10T16:32:02.944Z,51.26
2023-01-10T16:35:07.277Z,51.27
2023-01-10T16:38:12.426Z,51.41
2023-01-10T16:41:34.984Z,51.68
2023-01-10T16:44:38.776Z,51.47
2023-01-10T16:47:41.942Z,51.49
2023-01-10T16:50:48.030Z,51.80
2023-01-10T16:53:51.912Z,51.80
2023-01-10T16:56:57.406Z,51.71
2023-01-10T17:00:00.655Z,52.25
2023-01-10T17:03:07.697Z,52.36
2023-01-10T17:06:12.622Z,53.02
2023-01-10T17:09:24.657Z,52.92
2023-01-10T17:12:35.542Z,53.03
2023-01-10T17:15:39.244Z,53.13
2023-01-10T17:18:43.087Z,53.42
2023-01-10T17:21:46.866Z,53.87
2023-01-10T17:24:50.384Z,53.75
2023-01-10T17:27:55.733Z,53.89
2023-01-10T17:30:59.951Z,54.41
2023-01-10T17:34:03.868Z,54.57
2023-01-10T17:37:07.531Z,55.09
2023-01-10T17:40:13.054Z,54.59
2023-01-10T17:43:20.104Z,54.65
2023-01-10T17:46:24.904Z,55.40
2023-01-10T17:49:28.134Z,55.24
2023-01-10T17:52:31.948Z,55.44
2023-01-10T17:55:35.130Z,55.35
2023-01-10T17:58:40.947Z,55.30
2023-01-10T18:01:44.311Z,55.83
2023-01-10T18:04:48.165Z,55.80
2023-01-10T18:07:51.364Z,55.90
2023-01-10T18:11:01.131Z,55.76
2023-01-10T18:14:20.024Z,55.44
2023-01-10T18:17:23.974Z,55.19
2023-01-10T18:20:27.902Z,55.65
2023-01-10T18:23:32.933Z,55.10
2023-01-10T18:26:36.177Z,55.09
2023-01-10T18:29:41.726Z,54.45
2023-01-10T18:32:44.885Z,55.16
2023-01-10T18:35:49.070Z,54.57
2023-01-10T18:38:53.460Z,54.61
2023-01-10T18:41:57.368Z,54.31
2023-01-10T18:45:02.028Z,54.89
2023-01-10T18:48:06.785Z,54.24
2023-01-10T18:51:12.417Z,54.46
2023-01-10T18:54:18.972Z,54.39
2023-01-10T18:57:22.524Z,54.36
2023-01-10T19:00:28.495Z,53.89
2023-01-10T19:03:33.062Z,54.36
2023-01-10T19:06:36.928Z,54.37
2023-01-10T19:09:40.075Z,54.74
2023-01-10T19:12:43.856Z,55.66
2023-01-10T19:15:49.002Z,56.60
2023-01-10T19:18:55.545Z,56.42
2023-01-10T19:21:59.011Z,55.78
2023-01-10T19:25:02.700Z,55.65
2023-01-10T19:28:06.711Z,55.77
2023-01-10T19:31:16.993Z,55.15
2023-01-10T19:34:20.350Z,54.84
2023-01-10T19:37:24.076Z,54.72
2023-01-10T19:40:27.258Z,54.67
2023-01-10T19:43:31.175Z,55.19
2023-01-10T19:46:37.145Z,55.32
2023-01-10T19:49:41.137Z,55.40
2023-01-10T19:52:46.420Z,55.72
2023-01-10T19:55:50.248Z,56.00
2023-01-10T19:58:55.495Z,56.14
2023-01-10T20:02:01.155Z,55.82
2023-01-10T20:05:05.257Z,56.05
2023-01-10T20:08:09.541Z,56.97
2023-01-10T20:11:13.143Z,56.26
2023-01-10T20:14:19.922Z,56.37
2023-01-10T20:17:24.866Z,56.60
2023-01-10T20:20:28.715Z,56.18
2023-01-10T20:23:32.243Z,56.11
2023-01-10T20:26:35.827Z,56.11
2023-01-10T20:29:40.805Z,56.26
2023-01-10T20:32:45.817Z,56.09
2023-01-10T20:35:57.396Z,55.88
2023-01-10T20:39:01.477Z,55.68
2023-01-10T20:42:04.778Z,55.86
2023-01-10T20:45:09.809Z,55.75
2023-01-10T20:48:14.459Z,55.65
2023-01-10T20:51:21.666Z,56.19
2023-01-10T20:54:25.557Z,55.63
2023-01-10T20:57:29.437Z,55.67
2023-01-10T21:00:33.675Z,55.54
2023-01-10T21:03:39.161Z,55.53
2023-01-10T21:06:42.443Z,55.18
2023-01-10T21:09:46.062Z,54.99
2023-01-10T21:12:49.244Z,54.97
2023-01-10T21:15:56.752Z,54.84
2023-01-10T21:19:03.094Z,54.91
2023-01-10T21:22:06.717Z,54.68
2023-01-10T21:25:11.015Z,54.52
2023-01-10T21:28:14.911Z,54.83
2023-01-10T21:31:21.112Z,54.51
2023-01-10T21:34:26.296Z,54.90
2023-01-10T21:37:29.556Z,54.61
2023-01-10T21:40:34.621Z,54.55
2023-01-10T21:43:38.720Z,54.40
2023-01-10T21:46:44.642Z,54.36
2023-01-10T21:49:49.276Z,54.29
2023-01-10T21:52:52.971Z,54.08
2023-01-10T21:55:59.901Z,53.83
2023-01-10T21:59:03.774Z,54.03
2023-01-10T22:02:06.931Z,54.04
2023-01-10T22:05:12.367Z,53.86
2023-01-10T22:08:15.605Z,54.17
2023-01-10T22:11:19.389Z,54.09
2023-01-10T22:14:22.605Z,53.70
2023-01-10T22:17:26.257Z,53.69
2023-01-10T22:20:30.841Z,53.54
2023-01-10T22:23:34.735Z,53.43
2023-01-10T22:26:37.934Z,53.77
2023-01-10T22:29:41.373Z,53.38
2023-01-10T22:32:44.580Z,53.37
2023-01-10T22:35:49.943Z,52.97
2023-01-10T22:38:53.279Z,53.54
2023-01-10T22:41:56.919Z,53.37
2023-01-10T22:45:00.193Z,53.51
2023-01-10T22:48:04.158Z,53.53
2023-01-10T22:51:09.487Z,53.79
2023-01-10T22:54:15.884Z,53.54
2023-01-10T22:57:19.150Z,53.50
2023-01-10T23:00:23.386Z,54.21
2023-01-10T23:03:26.730Z,53.86
2023-01-10T23:06:31.939Z,53.65
2023-01-10T23:09:35.102Z,53.45
2023-01-10T23:12:38.711Z,54.05
2023-01-10T23:15:42.213Z,53.46
2023-01-10T23:18:46.317Z,53.72
2023-01-10T23:21:51.385Z,54.25
2023-01-10T23:24:54.954Z,53.37
2023-01-10T23:27:58.158Z,54.03
2023-01-10T23:31:02.396Z,54.09
2023-01-10T23:34:05.571Z,53.82
2023-01-10T23:37:10.824Z,53.91
2023-01-10T23:40:14.595Z,53.95
2023-01-10T23:43:18.877Z,53.94
2023-01-10T23:46:22.257Z,54.08
2023-01-10T23:49:25.996Z,53.67
2023-01-10T23:52:30.599Z,53.61
2023-01-10T23:55:35.173Z,53.92
2023-01-10T23:58:39.249Z,53.68
